Time;durP1;ratioP1;P1;durP2;ratioP2;P2;SDS_P1;SDS_P2;PMS_P1;PMS_P2;Temp;Humidity;BMP_temperature;BMP_pressure;BME280_temperature;BME280_humidity;BME280_pressure;Samples;Min_cycle;Max_cycle;Signal;HPM_P1;HPM_P2
2022/09/01 00:02:07;;;;;;;3.28;1.05;;;16.80;99.90;;;;;;5022239;28;20556;-69
2022/09/01 00:04:37;;;;;;;1.00;0.50;;;16.80;99.90;;;;;;5022961;28;20083;-72
2022/09/01 00:07:04;;;;;;;3.10;0.43;;;16.70;99.90;;;;;;5024083;28;20038;-71
2022/09/01 00:09:31;;;;;;;2.60;0.38;;;16.70;99.90;;;;;;5024807;28;20048;-71
2022/09/01 00:11:56;;;;;;;3.08;0.45;;;16.70;99.90;;;;;;5023679;28;20036;-71
2022/09/01 00:14:26;;;;;;;2.53;0.40;;;16.70;99.90;;;;;;5023791;28;20038;-70
2022/09/01 00:16:52;;;;;;;3.13;0.47;;;16.60;99.90;;;;;;5024481;28;20046;-69
2022/09/01 00:19:19;;;;;;;1.30;0.38;;;16.60;99.90;;;;;;5024321;28;20571;-72
2022/09/01 00:21:45;;;;;;;0.77;0.30;;;16.60;99.90;;;;;;5027973;28;20413;-72
2022/09/01 00:24:13;;;;;;;0.60;0.30;;;16.50;99.90;;;;;;5026218;28;20129;-73
2022/09/01 00:26:39;;;;;;;0.50;0.32;;;16.50;99.90;;;;;;5028522;28;20083;-71
2022/09/01 00:29:05;;;;;;;1.30;0.50;;;16.50;99.90;;;;;;5027933;28;20481;-70
2022/09/01 00:31:31;;;;;;;3.30;0.68;;;16.60;99.90;;;;;;5027063;28;20037;-71
2022/09/01 00:33:56;;;;;;;3.65;0.88;;;16.50;99.90;;;;;;5026949;28;20061;-72
2022/09/01 00:36:22;;;;;;;1.40;0.40;;;16.50;99.90;;;;;;5028089;28;20029;-70
2022/09/01 00:38:50;;;;;;;2.47;0.40;;;16.50;99.90;;;;;;5029967;28;20029;-71
2022/09/01 00:41:18;;;;;;;3.45;0.60;;;16.40;99.90;;;;;;5033134;28;20049;-71
2022/09/01 00:43:51;;;;;;;2.38;0.55;;;16.40;99.90;;;;;;5034633;28;20032;-72
2022/09/01 00:46:23;;;;;;;0.82;0.40;;;16.30;99.90;;;;;;5022457;28;20079;-71
2022/09/01 00:49:34;;;;;;;1.92;0.40;;;16.30;99.90;;;;;;5025154;28;20042;-71
2022/09/01 00:52:20;;;;;;;1.23;0.38;;;16.30;99.90;;;;;;5024984;28;20033;-71
2022/09/01 00:54:54;;;;;;;2.63;0.40;;;16.30;99.90;;;;;;5023142;28;20121;-72
2022/09/01 00:57:20;;;;;;;1.17;0.30;;;16.20;99.90;;;;;;5022312;28;20037;-72
2022/09/01 00:59:52;;;;;;;2.08;0.50;;;16.20;99.90;;;;;;5019027;28;20041;-71
2022/09/01 01:02:18;;;;;;;2.65;0.50;;;16.20;99.90;;;;;;5022412;28;20784;-70
2022/09/01 01:04:45;;;;;;;2.72;0.32;;;16.10;99.90;;;;;;5026108;28;20080;-71
2022/09/01 01:07:11;;;;;;;1.48;0.73;;;16.20;99.90;;;;;;5026497;28;20045;-72
2022/09/01 01:09:41;;;;;;;1.40;0.30;;;16.10;99.90;;;;;;5027958;28;20033;-71
2022/09/01 01:12:12;;;;;;;2.97;0.77;;;16.10;99.90;;;;;;5025386;28;20056;-71
2022/09/01 01:14:38;;;;;;;3.25;0.60;;;16.10;99.90;;;;;;5026062;28;20051;-69
2022/09/01 01:17:05;;;;;;;2.17;0.50;;;16.00;99.90;;;;;;5026634;28;20044;-71
2022/09/01 01:23:04;;;;;;;3.33;0.70;;;15.90;99.90;;;;;;5023568;28;20060;-71
2022/09/01 01:25:32;;;;;;;3.65;0.60;;;15.90;99.90;;;;;;5026348;28;20096;-71
2022/09/01 01:28:29;;;;;;;6.30;0.60;;;15.90;99.90;;;;;;5032433;28;20037;-71
2022/09/01 01:31:00;;;;;;;2.15;0.40;;;15.80;99.90;;;;;;5032208;28;20040;-73
2022/09/01 01:33:40;;;;;;;2.28;0.60;;;15.90;99.90;;;;;;5034660;28;20036;-71
2022/09/01 01:36:11;;;;;;;1.10;0.30;;;15.80;99.90;;;;;;5029683;28;20032;-71
2022/09/01 01:38:41;;;;;;;5.68;0.70;;;15.90;99.90;;;;;;5030148;28;20128;-71
2022/09/01 01:41:09;;;;;;;1.73;0.50;;;15.90;99.90;;;;;;5023787;28;20049;-71
2022/09/01 01:43:36;;;;;;;1.17;0.40;;;15.80;99.90;;;;;;5019932;28;20038;-70
2022/09/01 01:46:04;;;;;;;3.17;0.32;;;15.80;99.90;;;;;;5022244;28;20080;-71
2022/09/01 01:48:33;;;;;;;3.50;0.60;;;15.80;99.90;;;;;;5027423;28;20540;-71
2022/09/01 01:51:00;;;;;;;1.95;0.50;;;15.70;99.90;;;;;;5025837;28;20873;-72
2022/09/01 01:53:26;;;;;;;1.75;0.60;;;15.70;99.90;;;;;;5027470;28;20025;-71
2022/09/01 01:55:52;;;;;;;1.10;0.60;;;15.70;99.90;;;;;;5028008;28;20083;-71
2022/09/01 01:58:20;;;;;;;1.30;0.50;;;15.70;99.90;;;;;;5027006;28;20046;-72
2022/09/01 02:00:48;;;;;;;6.28;0.70;;;15.70;99.90;;;;;;5018851;28;20130;-72
2022/09/01 02:03:17;;;;;;;1.13;0.35;;;15.60;99.90;;;;;;5025041;28;20117;-71
2022/09/01 02:05:45;;;;;;;4.03;1.15;;;15.70;99.90;;;;;;5024245;28;20033;-71
2022/09/01 02:08:14;;;;;;;1.13;0.50;;;15.60;99.90;;;;;;5026511;28;20033;-72
2022/09/01 02:10:42;;;;;;;4.68;1.40;;;15.70;99.90;;;;;;5029488;28;20037;-71
2022/09/01 02:13:14;;;;;;;3.80;0.60;;;15.60;99.90;;;;;;5024520;28;20485;-71
2022/09/01 02:15:44;;;;;;;0.65;0.40;;;15.60;99.90;;;;;;5026134;28;20041;-71
2022/09/01 02:18:23;;;;;;;1.92;0.50;;;15.60;99.90;;;;;;5026254;28;20035;-69
2022/09/01 02:20:50;;;;;;;3.05;0.70;;;15.60;99.90;;;;;;5022195;28;20033;-71
2022/09/01 02:23:22;;;;;;;1.80;0.68;;;15.60;99.90;;;;;;5025267;28;20045;-72
2022/09/01 02:25:50;;;;;;;3.63;0.50;;;15.50;99.90;;;;;;5025073;28;20107;-72
2022/09/01 02:28:17;;;;;;;1.20;0.40;;;15.50;99.90;;;;;;5026146;28;20561;-71
2022/09/01 02:30:50;;;;;;;1.13;0.50;;;15.50;99.90;;;;;;5026522;28;20064;-70
2022/09/01 02:33:18;;;;;;;2.38;0.77;;;15.50;99.90;;;;;;5021831;28;20036;-72
2022/09/01 02:35:59;;;;;;;1.75;0.63;;;15.50;99.90;;;;;;5025429;28;20040;-72
2022/09/01 02:38:28;;;;;;;1.05;0.40;;;15.50;99.90;;;;;;5022221;28;20049;-70
2022/09/01 02:40:55;;;;;;;1.75;0.40;;;15.50;99.90;;;;;;5025215;28;20033;-69
2022/09/01 02:43:21;;;;;;;1.25;0.50;;;15.50;99.90;;;;;;5023520;28;20048;-72
2022/09/01 02:45:54;;;;;;;1.52;0.45;;;15.40;99.90;;;;;;5026286;28;20017;-72
2022/09/01 02:48:23;;;;;;;0.95;0.45;;;15.40;99.90;;;;;;5024443;28;20030;-71
2022/09/01 02:50:49;;;;;;;2.25;0.43;;;15.40;99.90;;;;;;5024201;28;20079;-71
2022/09/01 02:53:15;;;;;;;3.03;0.77;;;15.30;99.90;;;;;;5023037;28;20026;-71
2022/09/01 02:55:42;;;;;;;1.60;0.50;;;15.30;99.90;;;;;;5024801;28;20029;-71
2022/09/01 02:58:14;;;;;;;2.13;0.52;;;15.40;99.90;;;;;;5023766;28;20037;-72
2022/09/01 03:00:39;;;;;;;3.72;0.43;;;15.30;99.90;;;;;;5024511;28;20045;-71
2022/09/01 03:03:06;;;;;;;1.00;0.40;;;15.30;99.90;;;;;;5024274;28;20044;-72
2022/09/01 03:05:33;;;;;;;1.98;0.93;;;15.40;99.90;;;;;;5027655;28;20567;-71
2022/09/01 03:08:02;;;;;;;3.30;0.98;;;15.30;99.90;;;;;;5029892;28;20087;-71
2022/09/01 03:10:32;;;;;;;3.08;0.40;;;15.30;99.90;;;;;;5031549;28;20041;-69
2022/09/01 03:13:00;;;;;;;1.20;0.60;;;15.30;99.90;;;;;;5030320;28;20029;-71
2022/09/01 03:15:27;;;;;;;1.13;0.47;;;15.30;99.90;;;;;;5029769;28;20029;-70
2022/09/01 03:17:52;;;;;;;4.20;0.73;;;15.30;99.90;;;;;;5028187;28;20036;-71
2022/09/01 03:20:20;;;;;;;3.05;0.50;;;15.30;99.90;;;;;;5027797;28;20038;-71
2022/09/01 03:22:50;;;;;;;1.00;0.63;;;15.20;99.90;;;;;;5027869;28;20033;-71
2022/09/01 03:25:17;;;;;;;2.40;0.57;;;15.20;99.90;;;;;;5028594;28;20040;-71
2022/09/01 03:27:43;;;;;;;3.08;0.70;;;15.20;99.90;;;;;;5026280;28;20028;-71
2022/09/01 03:30:09;;;;;;;1.75;0.30;;;15.20;99.90;;;;;;5023891;28;20034;-72
2022/09/01 03:32:35;;;;;;;2.97;0.65;;;15.20;99.90;;;;;;5024983;28;20040;-72
2022/09/01 03:35:02;;;;;;;2.70;0.40;;;15.20;99.90;;;;;;5024460;28;20041;-73
2022/09/01 03:37:27;;;;;;;2.42;0.63;;;15.10;99.90;;;;;;5025120;28;20116;-71
2022/09/01 03:39:53;;;;;;;2.83;0.88;;;15.20;99.90;;;;;;5024699;28;20128;-72
2022/09/01 03:42:21;;;;;;;3.03;0.50;;;15.10;99.90;;;;;;5022697;28;20121;-70
2022/09/01 03:44:48;;;;;;;13.40;2.38;;;15.20;99.90;;;;;;5024088;28;20513;-72
2022/09/01 03:47:15;;;;;;;2.17;0.68;;;15.20;99.90;;;;;;5024764;28;20037;-69
2022/09/01 03:49:42;;;;;;;0.88;0.40;;;15.20;99.90;;;;;;5024977;28;20041;-68
2022/09/01 03:52:10;;;;;;;1.85;0.60;;;15.20;99.90;;;;;;5023821;28;20482;-72
2022/09/01 03:54:37;;;;;;;1.38;0.50;;;15.20;99.90;;;;;;5020513;28;20025;-71
2022/09/01 03:57:04;;;;;;;1.55;0.60;;;15.20;99.90;;;;;;5022743;28;20119;-71
2022/09/01 03:59:31;;;;;;;1.25;0.40;;;15.30;99.90;;;;;;5024891;28;20048;-72
2022/09/01 04:01:58;;;;;;;1.48;0.40;;;15.30;99.90;;;;;;5024471;28;20029;-71
2022/09/01 04:04:25;;;;;;;0.85;0.43;;;15.20;99.90;;;;;;5024008;28;20057;-72
2022/09/01 04:06:51;;;;;;;3.58;0.50;;;15.20;99.90;;;;;;5023118;28;20108;-71
2022/09/01 04:09:17;;;;;;;2.03;0.40;;;15.30;99.90;;;;;;5024609;28;20179;-72
2022/09/01 04:11:45;;;;;;;1.70;0.70;;;15.20;99.90;;;;;;5025669;28;20128;-71
2022/09/01 04:14:11;;;;;;;2.03;0.70;;;15.30;99.90;;;;;;5023368;28;20508;-72
2022/09/01 04:19:26;;;;;;;1.35;0.40;;;15.30;99.90;;;;;;5022096;28;20129;-71
2022/09/01 04:21:56;;;;;;;1.08;0.75;;;15.40;99.90;;;;;;5024398;28;20038;-72
2022/09/01 04:24:23;;;;;;;2.63;0.57;;;15.30;99.90;;;;;;5023644;28;20045;-71
2022/09/01 04:26:50;;;;;;;1.45;0.38;;;15.30;99.90;;;;;;5024303;28;20125;-71
2022/09/01 04:29:18;;;;;;;3.05;0.50;;;15.20;99.90;;;;;;5018433;28;20049;-72
2022/09/01 04:31:44;;;;;;;1.85;0.45;;;15.30;99.90;;;;;;5019138;28;20058;-71
2022/09/01 04:34:12;;;;;;;3.53;0.70;;;15.20;99.90;;;;;;5021225;28;20033;-71
2022/09/01 04:36:40;;;;;;;1.35;0.30;;;15.20;99.90;;;;;;5024213;28;20120;-71
2022/09/01 04:39:08;;;;;;;3.13;0.80;;;15.30;99.90;;;;;;5023497;28;20045;-71
2022/09/01 04:41:36;;;;;;;1.65;0.60;;;15.20;99.90;;;;;;5026678;28;20056;-72
2022/09/01 04:44:03;;;;;;;3.80;0.50;;;15.20;99.90;;;;;;5029752;28;20056;-72
2022/09/01 04:46:33;;;;;;;1.75;0.50;;;15.30;99.90;;;;;;5030708;28;20037;-70
2022/09/01 04:49:02;;;;;;;5.38;0.45;;;15.30;99.90;;;;;;5028502;28;20026;-71
2022/09/01 04:51:28;;;;;;;2.63;0.45;;;15.30;99.90;;;;;;5029034;28;20034;-69
2022/09/01 04:53:57;;;;;;;1.08;0.45;;;15.30;99.90;;;;;;5016473;28;20540;-71
2022/09/01 04:56:25;;;;;;;1.30;0.40;;;15.30;99.90;;;;;;5022348;28;20417;-72
2022/09/01 04:58:54;;;;;;;1.00;0.50;;;15.30;99.90;;;;;;5016688;28;20030;-71
2022/09/01 05:01:22;;;;;;;0.43;0.20;;;15.30;99.90;;;;;;5017398;28;20042;-71
2022/09/01 05:04:00;;;;;;;2.72;0.60;;;15.40;99.90;;;;;;5013842;28;20528;-72
2022/09/01 05:06:27;;;;;;;5.40;0.50;;;15.30;99.90;;;;;;5020600;28;20037;-72
2022/09/01 05:08:55;;;;;;;2.90;0.60;;;15.30;99.90;;;;;;5017744;28;20030;-71
2022/09/01 05:11:22;;;;;;;1.45;0.68;;;15.30;99.90;;;;;;5015777;28;20440;-72
2022/09/01 05:13:49;;;;;;;3.03;0.68;;;15.20;99.90;;;;;;5020580;28;20277;-73
2022/09/01 05:16:19;;;;;;;1.02;0.50;;;15.20;99.90;;;;;;5019673;28;20033;-71
2022/09/01 05:18:47;;;;;;;1.13;0.30;;;15.30;99.90;;;;;;5018026;28;20040;-71
2022/09/01 05:21:16;;;;;;;2.85;0.73;;;15.30;99.90;;;;;;5020239;28;20053;-70
2022/09/01 05:23:43;;;;;;;1.42;0.50;;;15.40;99.90;;;;;;5019284;28;20064;-71
2022/09/01 05:26:17;;;;;;;2.00;0.60;;;15.40;99.90;;;;;;5019590;28;20035;-72
2022/09/01 05:28:44;;;;;;;0.63;0.38;;;15.40;99.90;;;;;;5020011;28;20037;-69
2022/09/01 05:31:11;;;;;;;1.15;0.50;;;15.40;99.90;;;;;;5017966;28;20038;-70
2022/09/01 05:33:44;;;;;;;1.70;0.55;;;15.50;99.90;;;;;;5019754;28;20044;-72
2022/09/01 05:36:10;;;;;;;1.60;0.50;;;15.50;99.90;;;;;;5019190;28;20827;-70
2022/09/01 05:38:35;;;;;;;2.13;0.50;;;15.50;99.90;;;;;;5018723;28;20075;-70
2022/09/01 05:41:07;;;;;;;1.25;0.52;;;15.50;99.90;;;;;;5019936;28;20041;-71
2022/09/01 05:43:33;;;;;;;2.58;0.47;;;15.50;99.90;;;;;;5014900;28;20041;-71
2022/09/01 05:46:00;;;;;;;0.73;0.40;;;15.60;99.70;;;;;;5018203;28;20025;-70
2022/09/01 05:48:30;;;;;;;1.42;0.68;;;15.60;99.60;;;;;;5018798;28;20665;-71
2022/09/01 05:50:58;;;;;;;2.95;0.55;;;15.60;99.60;;;;;;5019326;28;20041;-71
2022/09/01 05:53:27;;;;;;;2.20;0.50;;;15.60;99.60;;;;;;5014961;28;20994;-70
2022/09/01 05:55:56;;;;;;;0.38;0.30;;;15.70;99.50;;;;;;5019781;28;20452;-70
2022/09/01 05:58:24;;;;;;;1.58;0.50;;;15.60;99.60;;;;;;5023288;28;20033;-70
2022/09/01 06:00:52;;;;;;;2.03;0.65;;;15.70;99.60;;;;;;5019355;28;20120;-71
2022/09/01 06:03:20;;;;;;;4.85;0.93;;;15.80;99.50;;;;;;5020462;28;21931;-71
2022/09/01 06:05:51;;;;;;;1.13;0.45;;;15.80;99.10;;;;;;5017530;28;20021;-69
2022/09/01 06:08:18;;;;;;;0.70;0.47;;;15.90;99.10;;;;;;5015911;28;20026;-70
2022/09/01 06:10:44;;;;;;;1.70;0.50;;;15.90;99.10;;;;;;5016743;28;20033;-71
2022/09/01 06:13:10;;;;;;;2.17;0.50;;;16.10;98.90;;;;;;5016571;28;20088;-71
2022/09/01 06:15:40;;;;;;;1.50;0.50;;;16.40;98.50;;;;;;5019643;28;20039;-71
2022/09/01 06:18:10;;;;;;;5.05;0.60;;;16.60;97.70;;;;;;5017315;28;20041;-71
2022/09/01 06:20:39;;;;;;;3.50;0.85;;;16.70;97.60;;;;;;5020937;28;20049;-72
2022/09/01 06:23:05;;;;;;;1.23;0.50;;;16.80;97.40;;;;;;5019635;28;20037;-70
2022/09/01 06:25:31;;;;;;;2.60;0.63;;;16.90;97.20;;;;;;5020920;28;20119;-70
2022/09/01 06:27:57;;;;;;;2.25;0.55;;;16.90;96.80;;;;;;5027420;28;20097;-69
2022/09/01 06:30:25;;;;;;;0.88;0.35;;;17.00;96.50;;;;;;5029504;28;20038;-71
2022/09/01 06:32:52;;;;;;;1.63;0.55;;;17.20;96.30;;;;;;5027082;28;20047;-69
2022/09/01 06:35:19;;;;;;;2.60;0.40;;;17.40;96.30;;;;;;5026654;28;20040;-69
2022/09/01 06:37:47;;;;;;;1.00;0.30;;;17.60;96.10;;;;;;5024408;28;20524;-71
2022/09/01 06:40:17;;;;;;;4.57;0.40;;;18.00;95.60;;;;;;5025588;28;20105;-70
2022/09/01 06:42:47;;;;;;;1.02;0.55;;;18.50;94.90;;;;;;5021289;28;20041;-70
2022/09/01 06:45:13;;;;;;;;;;;19.20;93.60;;;;;;5017600;28;20045;-71
2022/09/01 06:47:43;;;;;;;2.55;0.50;;;19.80;92.70;;;;;;5020431;28;19995;-71
2022/09/01 06:50:17;;;;;;;0.98;0.43;;;20.60;91.90;;;;;;5014857;28;20692;-71
2022/09/01 06:52:43;;;;;;;0.90;0.30;;;21.40;90.10;;;;;;5011929;28;20044;-71
2022/09/01 06:55:13;;;;;;;2.28;0.77;;;21.80;89.30;;;;;;5016067;28;20034;-71
2022/09/01 06:57:41;;;;;;;1.30;0.30;;;22.10;87.90;;;;;;5018758;28;20148;-71
2022/09/01 07:00:19;;;;;;;2.97;0.70;;;21.80;87.90;;;;;;5014084;28;20033;-71
2022/09/01 07:02:46;;;;;;;4.75;0.43;;;21.30;87.60;;;;;;5015900;28;20402;-71
2022/09/01 07:05:20;;;;;;;1.60;0.80;;;20.60;89.30;;;;;;5019260;28;20033;-71
2022/09/01 07:07:51;;;;;;;1.20;0.40;;;20.20;90.50;;;;;;5016541;28;20108;-69
2022/09/01 07:10:26;;;;;;;2.38;0.30;;;19.90;90.80;;;;;;5016524;28;20041;-68
2022/09/01 07:12:54;;;;;;;3.97;0.50;;;19.50;91.30;;;;;;5017429;28;20045;-69
2022/09/01 07:15:22;;;;;;;2.00;0.30;;;19.40;91.50;;;;;;5021386;28;20409;-69
2022/09/01 07:17:54;;;;;;;2.80;0.60;;;19.10;91.80;;;;;;5022493;28;20128;-74
2022/09/01 07:20:26;;;;;;;0.95;0.50;;;19.00;92.00;;;;;;5022052;28;20573;-71
2022/09/01 07:22:53;;;;;;;2.25;0.40;;;19.00;92.10;;;;;;5021453;28;20061;-72
2022/09/01 07:25:19;;;;;;;2.50;0.40;;;18.90;92.20;;;;;;5016134;28;20164;-71
2022/09/01 07:27:48;;;;;;;2.67;0.73;;;18.90;92.30;;;;;;5016875;28;20037;-67
2022/09/01 07:30:14;;;;;;;6.18;0.75;;;18.90;92.20;;;;;;5015863;28;20037;-69
2022/09/01 07:32:42;;;;;;;5.03;0.80;;;19.00;92.20;;;;;;5018939;28;20025;-69
2022/09/01 07:35:08;;;;;;;7.18;0.50;;;19.00;92.00;;;;;;5017496;28;20033;-72
2022/09/01 07:37:36;;;;;;;3.03;0.40;;;19.00;92.20;;;;;;5016015;28;20045;-70
2022/09/01 07:40:08;;;;;;;3.85;0.65;;;19.00;92.20;;;;;;5019449;28;20061;-69
2022/09/01 07:42:35;;;;;;;0.80;0.38;;;18.90;92.10;;;;;;5015044;28;20513;-69
2022/09/01 07:45:06;;;;;;;1.33;0.30;;;19.00;92.20;;;;;;5020585;28;20470;-70
2022/09/01 07:47:35;;;;;;;5.88;0.43;;;19.00;92.30;;;;;;5021255;28;20029;-70
2022/09/01 07:50:05;;;;;;;0.67;0.40;;;19.10;92.40;;;;;;5017635;28;20068;-69
2022/09/01 07:52:33;;;;;;;3.28;0.52;;;19.20;92.20;;;;;;5013408;28;20033;-70
2022/09/01 07:54:59;;;;;;;1.58;0.40;;;19.20;92.50;;;;;;5017032;28;20033;-68
2022/09/01 07:57:25;;;;;;;5.95;0.60;;;19.40;92.20;;;;;;5019403;28;20033;-71
2022/09/01 07:59:54;;;;;;;9.82;1.10;;;19.40;91.90;;;;;;5017721;28;20026;-70
2022/09/01 08:02:20;;;;;;;5.93;0.40;;;19.40;92.00;;;;;;5020528;28;20041;-70
2022/09/01 08:04:45;;;;;;;6.63;0.40;;;19.50;92.00;;;;;;5015647;28;20041;-69
2022/09/01 08:07:13;;;;;;;6.90;0.40;;;19.60;91.80;;;;;;5017762;28;20043;-70
2022/09/01 08:09:39;;;;;;;2.55;0.88;;;19.60;92.10;;;;;;5017536;28;20040;-70
2022/09/01 08:12:06;;;;;;;0.93;0.40;;;19.70;91.90;;;;;;5018065;28;20037;-69
2022/09/01 08:14:32;;;;;;;2.38;0.30;;;19.80;91.70;;;;;;5017022;28;20041;-68
2022/09/01 08:16:57;;;;;;;2.78;0.38;;;19.90;91.20;;;;;;5017912;28;20032;-71
2022/09/01 08:19:23;;;;;;;4.35;0.35;;;20.00;91.10;;;;;;5028460;28;20124;-69
2022/09/01 08:21:49;;;;;;;2.55;0.20;;;20.10;91.10;;;;;;5028180;28;20038;-70
2022/09/01 08:24:15;;;;;;;3.72;0.40;;;20.20;91.10;;;;;;5023493;28;20049;-70
2022/09/01 08:26:40;;;;;;;0.88;0.20;;;20.20;91.00;;;;;;5029504;28;20056;-69
2022/09/01 08:29:06;;;;;;;5.22;0.60;;;20.30;91.20;;;;;;5020895;28;20034;-70
2022/09/01 08:31:32;;;;;;;3.45;0.55;;;20.50;90.70;;;;;;5022948;28;20568;-70
2022/09/01 08:33:58;;;;;;;0.85;0.28;;;20.60;90.10;;;;;;5020685;28;20048;-70
2022/09/01 08:36:24;;;;;;;2.88;0.38;;;20.70;89.80;;;;;;5023289;28;20037;-69
2022/09/01 08:38:50;;;;;;;1.65;0.20;;;20.80;90.10;;;;;;5024307;28;20037;-70
2022/09/01 08:41:26;;;;;;;0.47;0.20;;;20.80;89.80;;;;;;5023197;28;20418;-71
2022/09/01 08:44:25;;;;;;;2.47;0.68;;;20.90;90.00;;;;;;5020525;28;20048;-70
2022/09/01 08:47:04;;;;;;;0.47;0.10;;;21.10;89.10;;;;;;5020226;28;20033;-69
2022/09/01 08:49:32;;;;;;;4.53;0.60;;;21.20;87.90;;;;;;5022233;28;20086;-69
2022/09/01 08:52:01;;;;;;;6.72;0.40;;;21.30;88.20;;;;;;5019472;28;20080;-70
2022/09/01 08:54:41;;;;;;;2.17;0.45;;;21.40;87.20;;;;;;5017151;28;20043;-69
2022/09/01 08:57:37;;;;;;;4.88;0.50;;;21.50;88.00;;;;;;5019398;28;20080;-72
2022/09/01 09:00:10;;;;;;;1.27;0.47;;;21.60;87.40;;;;;;5011027;28;20061;-68
2022/09/01 09:03:00;;;;;;;1.42;0.32;;;21.70;87.20;;;;;;5019925;28;20033;-71
2022/09/01 09:05:53;;;;;;;0.80;0.20;;;21.90;86.20;;;;;;5021300;28;20036;-70
2022/09/01 09:08:58;;;;;;;1.52;0.20;;;21.90;85.90;;;;;;5022674;28;20045;-70
2022/09/01 09:11:57;;;;;;;5.05;0.32;;;22.10;85.20;;;;;;5019605;28;20034;-70
2022/09/01 09:14:32;;;;;;;0.60;0.40;;;22.20;85.50;;;;;;5015729;28;20124;-72
2022/09/01 09:16:58;;;;;;;5.75;0.93;;;22.30;85.30;;;;;;5015960;28;20573;-70
2022/09/01 09:19:39;;;;;;;0.65;0.17;;;22.30;85.80;;;;;;5019938;28;20033;-71
2022/09/01 09:22:09;;;;;;;2.53;0.20;;;22.30;85.00;;;;;;5018996;28;20061;-72
2022/09/01 09:25:06;;;;;;;1.15;0.30;;;22.20;84.80;;;;;;5022172;28;20029;-72
2022/09/01 09:27:33;;;;;;;3.38;0.30;;;22.30;85.40;;;;;;5019152;28;20044;-68
2022/09/01 09:30:05;;;;;;;1.65;0.10;;;22.50;83.90;;;;;;5017424;28;20048;-71
2022/09/01 09:32:49;;;;;;;4.78;1.05;;;22.60;84.10;;;;;;5018166;28;20041;-70
2022/09/01 09:35:20;;;;;;;2.03;0.30;;;22.70;82.80;;;;;;5021210;28;20040;-71
2022/09/01 09:37:46;;;;;;;2.38;0.28;;;22.70;81.90;;;;;;5017694;28;20936;-71
2022/09/01 09:40:22;;;;;;;3.08;0.30;;;22.80;81.80;;;;;;5016478;28;20099;-70
2022/09/01 09:42:53;;;;;;;2.65;0.30;;;22.80;82.30;;;;;;5017833;28;20180;-70
2022/09/01 09:45:23;;;;;;;0.85;0.20;;;22.90;81.50;;;;;;5019358;28;20538;-72
2022/09/01 09:47:49;;;;;;;3.83;0.40;;;23.00;81.30;;;;;;5016685;28;20029;-70
2022/09/01 09:50:23;;;;;;;1.13;0.30;;;23.10;81.40;;;;;;5018713;28;20083;-71
2022/09/01 09:52:50;;;;;;;0.73;0.30;;;23.20;81.40;;;;;;5019774;28;20095;-72
2022/09/01 09:55:23;;;;;;;1.77;0.20;;;23.30;81.20;;;;;;5015952;28;20492;-69
2022/09/01 09:57:52;;;;;;;0.85;0.20;;;23.40;80.30;;;;;;5012480;28;20553;-70
2022/09/01 10:00:27;;;;;;;3.40;0.32;;;23.50;79.40;;;;;;5013987;28;20124;-70
2022/09/01 10:02:57;;;;;;;1.02;0.20;;;23.50;78.80;;;;;;5011553;28;20045;-70
2022/09/01 10:05:46;;;;;;;1.33;0.30;;;23.60;78.80;;;;;;5016414;28;20034;-70
2022/09/01 10:08:33;;;;;;;2.80;0.43;;;23.60;78.70;;;;;;5016005;28;20033;-68
2022/09/01 10:10:59;;;;;;;2.35;0.20;;;23.60;78.90;;;;;;5014431;28;20029;-69
2022/09/01 10:13:28;;;;;;;1.42;0.25;;;23.50;79.70;;;;;;5011493;28;20034;-69
2022/09/01 10:15:58;;;;;;;2.25;0.22;;;23.60;78.60;;;;;;5017429;28;20029;-70
2022/09/01 10:18:37;;;;;;;3.83;0.20;;;23.60;77.80;;;;;;5020605;28;20129;-70
2022/09/01 10:21:22;;;;;;;2.88;0.47;;;23.60;77.90;;;;;;5016471;28;20042;-71
2022/09/01 10:23:48;;;;;;;1.92;0.20;;;23.60;78.10;;;;;;5016023;28;20077;-68
2022/09/01 10:26:29;;;;;;;2.45;0.22;;;23.70;77.70;;;;;;5019089;28;20033;-68
2022/09/01 10:29:08;;;;;;;2.67;0.22;;;23.70;77.40;;;;;;5010136;28;20104;-70
2022/09/01 10:31:36;;;;;;;0.40;0.10;;;23.70;78.10;;;;;;5019281;28;20119;-69
2022/09/01 10:34:04;;;;;;;2.72;0.73;;;23.70;76.70;;;;;;5017617;28;20041;-68
2022/09/01 10:36:32;;;;;;;2.10;0.20;;;23.80;75.90;;;;;;5016616;28;20506;-70
2022/09/01 10:38:57;;;;;;;1.75;0.20;;;23.90;74.30;;;;;;5018748;28;20025;-69
2022/09/01 10:41:47;;;;;;;1.98;0.10;;;23.90;75.10;;;;;;5017094;28;20041;-70
2022/09/01 10:44:20;;;;;;;2.25;0.10;;;23.90;75.10;;;;;;5011021;28;20572;-70
2022/09/01 10:46:46;;;;;;;4.88;0.30;;;24.00;74.30;;;;;;5017958;28;20061;-70
2022/09/01 10:49:44;;;;;;;0.85;0.10;;;24.10;73.60;;;;;;5015578;28;20776;-69
2022/09/01 10:52:09;;;;;;;0.28;0.20;;;24.10;73.30;;;;;;5010159;28;20049;-70
2022/09/01 10:54:38;;;;;;;0.40;0.20;;;24.00;73.60;;;;;;5017130;28;20063;-70
2022/09/01 10:57:25;;;;;;;3.33;0.30;;;24.00;74.40;;;;;;5018063;28;20043;-69
2022/09/01 10:59:52;;;;;;;9.50;0.40;;;24.00;73.00;;;;;;5016573;28;20035;-70
2022/09/01 11:02:20;;;;;;;4.03;0.35;;;23.80;72.70;;;;;;5016987;28;20076;-70
2022/09/01 11:04:46;;;;;;;1.88;0.10;;;23.90;72.80;;;;;;5015046;28;20026;-69
2022/09/01 11:07:37;;;;;;;4.88;0.50;;;23.90;72.40;;;;;;5016365;28;20445;-71
2022/09/01 11:10:06;;;;;;;0.82;0.20;;;23.80;72.20;;;;;;5014198;28;20160;-70
2022/09/01 11:13:14;;;;;;;2.08;0.30;;;23.90;72.10;;;;;;5017237;28;20044;-70
2022/09/01 11:15:42;;;;;;;0.30;0.10;;;23.90;72.30;;;;;;5010522;28;20071;-71
2022/09/01 11:18:16;;;;;;;2.85;0.20;;;23.80;72.00;;;;;;5015247;28;20109;-71
2022/09/01 11:20:43;;;;;;;1.27;0.20;;;23.90;71.50;;;;;;5019059;28;20179;-71
2022/09/01 11:23:25;;;;;;;0.22;0.10;;;23.80;70.70;;;;;;5013628;28;20140;-71
2022/09/01 11:25:58;;;;;;;3.92;0.20;;;23.70;71.40;;;;;;5016378;28;20039;-70
2022/09/01 11:28:23;;;;;;;0.85;0.60;;;23.70;72.60;;;;;;5015907;28;20525;-70
2022/09/01 11:30:57;;;;;;;0.50;0.20;;;23.80;70.80;;;;;;5020723;28;20089;-71
2022/09/01 11:33:42;;;;;;;0.90;0.30;;;23.80;70.70;;;;;;5024831;28;20068;-71
2022/09/01 11:36:30;;;;;;;1.33;0.20;;;23.80;70.30;;;;;;5025911;28;20033;-71
2022/09/01 11:39:13;;;;;;;2.15;0.35;;;23.80;71.20;;;;;;5018336;28;20041;-71
2022/09/01 11:41:38;;;;;;;1.45;0.20;;;23.90;70.30;;;;;;5018732;28;20115;-68
2022/09/01 11:44:20;;;;;;;1.17;0.30;;;23.90;70.80;;;;;;5013042;28;20045;-71
2022/09/01 11:46:45;;;;;;;1.00;0.30;;;24.00;70.60;;;;;;5012010;28;20041;-71
2022/09/01 11:49:24;;;;;;;0.55;0.15;;;24.00;70.40;;;;;;5017036;28;20046;-70
2022/09/01 11:51:50;;;;;;;0.30;0.10;;;24.00;70.40;;;;;;5017156;28;20040;-69
2022/09/01 11:54:16;;;;;;;0.55;0.10;;;23.90;70.30;;;;;;5014776;28;20034;-70
2022/09/01 11:56:41;;;;;;;1.45;0.25;;;23.90;69.40;;;;;;5016019;28;20513;-69
2022/09/01 11:59:07;;;;;;;0.35;0.32;;;24.00;70.10;;;;;;5017703;28;20029;-69
2022/09/01 12:01:36;;;;;;;0.93;0.30;;;23.90;68.90;;;;;;5016271;28;20067;-67
2022/09/01 12:04:23;;;;;;;0.10;0.10;;;23.90;69.70;;;;;;5012927;28;20033;-69
2022/09/01 12:06:56;;;;;;;4.22;0.43;;;23.90;69.20;;;;;;5015887;28;20161;-69
2022/09/01 12:09:33;;;;;;;2.20;0.13;;;24.00;68.20;;;;;;5016733;28;20104;-69
2022/09/01 12:11:59;;;;;;;1.85;0.45;;;23.90;68.30;;;;;;5016376;28;20063;-69
2022/09/01 12:14:25;;;;;;;1.08;0.20;;;23.90;68.20;;;;;;5013693;28;20037;-69
2022/09/01 12:17:05;;;;;;;0.38;0.10;;;24.00;67.60;;;;;;5022619;28;20041;-68
2022/09/01 12:19:33;;;;;;;;;;;23.90;65.90;;;;;;5023375;28;20108;-69
2022/09/01 12:22:12;;;;;;;1.08;0.13;;;23.80;66.70;;;;;;5018691;28;19960;-69
2022/09/01 12:24:37;;;;;;;0.25;0.10;;;23.70;68.10;;;;;;5020646;28;20034;-71
2022/09/01 12:27:03;;;;;;;0.70;0.30;;;23.70;66.40;;;;;;5020820;28;20044;-69
2022/09/01 12:29:30;;;;;;;0.65;0.25;;;23.70;67.00;;;;;;5019957;28;20514;-71
2022/09/01 12:31:57;;;;;;;4.22;0.20;;;23.60;67.20;;;;;;5017951;28;20037;-71
2022/09/01 12:34:57;;;;;;;2.45;0.10;;;23.80;66.30;;;;;;5018537;28;20612;-71
2022/09/01 12:37:24;;;;;;;;;;;23.80;65.00;;;;;;5019639;28;20037;-69
2022/09/01 12:39:53;;;;;;;0.80;0.10;;;23.80;65.30;;;;;;5020224;28;19990;-69
2022/09/01 12:42:19;;;;;;;0.50;0.25;;;23.90;64.90;;;;;;5016412;28;21057;-72
2022/09/01 12:45:01;;;;;;;2.83;0.10;;;23.90;64.50;;;;;;5020481;28;20034;-71
2022/09/01 12:47:32;;;;;;;2.78;0.28;;;23.90;63.80;;;;;;5021734;28;20064;-71
2022/09/01 12:50:00;;;;;;;4.75;0.40;;;23.90;64.90;;;;;;5015074;28;20041;-69
2022/09/01 12:52:27;;;;;;;0.82;0.10;;;23.80;65.80;;;;;;5017852;28;20038;-68
2022/09/01 12:55:02;;;;;;;1.75;0.10;;;23.80;65.80;;;;;;5022389;28;20541;-69
2022/09/01 12:57:33;;;;;;;0.50;0.20;;;23.90;65.70;;;;;;5020447;28;20038;-67
2022/09/01 13:00:11;;;;;;;1.35;0.20;;;23.90;66.00;;;;;;5015872;28;20071;-69
2022/09/01 13:03:03;;;;;;;2.42;0.17;;;23.90;66.80;;;;;;5018503;28;20050;-68
2022/09/01 13:05:36;;;;;;;2.75;0.17;;;23.90;66.60;;;;;;5018315;28;20045;-67
2022/09/01 13:08:03;;;;;;;4.25;0.20;;;24.00;66.30;;;;;;5019144;28;20044;-69
2022/09/01 13:10:42;;;;;;;2.83;0.40;;;24.00;65.60;;;;;;5016168;28;20083;-67
2022/09/01 13:13:09;;;;;;;1.05;0.20;;;23.90;65.90;;;;;;5016616;28;20029;-67